Time;durP1;ratioP1;P1;durP2;ratioP2;P2;SDS_P1;SDS_P2;PMS_P1;PMS_P2;Temp;Humidity;BMP_temperature;BMP_pressure;BME280_temperature;BME280_humidity;BME280_pressure;Samples;Min_cycle;Max_cycle;Signal;HPM_P1;HPM_P2
2022/07/04 00:01:12;;;;;;;0.90;0.60;;;;;;;21.79;52.90;96842.66;5055595;22;20048;-80
2022/07/04 00:03:40;;;;;;;1.83;1.00;;;;;;;21.76;53.03;96840.50;5014343;28;20054;-80
2022/07/04 00:06:08;;;;;;;2.15;1.08;;;;;;;21.71;52.64;96838.59;5013491;28;20062;-80
2022/07/04 00:08:35;;;;;;;2.13;1.00;;;;;;;21.69;52.94;96838.03;5013210;28;20053;-80
2022/07/04 00:11:03;;;;;;;2.38;1.00;;;;;;;21.69;53.43;96839.88;5012964;28;20472;-80
2022/07/04 00:13:31;;;;;;;2.72;0.95;;;;;;;21.71;54.80;96841.25;5013036;28;20057;-79
2022/07/04 00:15:58;;;;;;;1.60;1.40;;;;;;;21.77;60.89;96845.56;5013305;28;20133;-80
2022/07/04 00:18:27;;;;;;;2.55;1.15;;;;;;;21.81;57.37;96836.06;5013310;28;20077;-79
2022/07/04 00:20:55;;;;;;;2.13;1.00;;;;;;;21.80;55.11;96836.31;5013087;28;20081;-79
2022/07/04 00:23:22;;;;;;;5.55;1.23;;;;;;;21.79;56.64;96838.16;5013173;28;20049;-80
2022/07/04 00:25:50;;;;;;;4.25;0.90;;;;;;;21.78;54.04;96833.09;5013073;28;20080;-80
2022/07/04 00:28:18;;;;;;;2.30;0.90;;;;;;;21.77;54.70;96823.53;5013270;28;20487;-80
2022/07/04 00:30:45;;;;;;;1.77;1.00;;;;;;;21.73;53.77;96822.41;5012572;28;20080;-80
2022/07/04 00:33:13;;;;;;;3.42;1.00;;;;;;;21.69;53.67;96806.19;5013044;28;20077;-79
2022/07/04 00:35:42;;;;;;;0.95;0.70;;;;;;;21.66;53.42;96806.66;5012861;28;20054;-80
2022/07/04 00:38:10;;;;;;;3.28;0.85;;;;;;;21.63;53.33;96804.50;5012838;28;20104;-80
2022/07/04 00:40:38;;;;;;;1.02;0.80;;;;;;;21.60;53.87;96802.34;5012459;28;20471;-80
2022/07/04 00:43:06;;;;;;;1.10;1.00;;;;;;;21.57;53.74;96797.53;5012980;28;20053;-80
2022/07/04 00:45:33;;;;;;;1.52;1.15;;;;;;;21.58;54.77;96805.25;5012733;28;20081;-80
2022/07/04 00:48:01;;;;;;;1.42;1.02;;;;;;;21.60;56.96;96805.00;5012269;28;20049;-80
2022/07/04 00:50:29;;;;;;;1.60;1.50;;;;;;;21.64;61.79;96802.66;5012355;28;20459;-79
2022/07/04 00:52:58;;;;;;;1.67;0.80;;;;;;;21.63;55.66;96785.13;5012237;28;20053;-79
2022/07/04 00:55:25;;;;;;;2.22;1.05;;;;;;;21.56;54.88;96786.13;5012611;28;20097;-79
2022/07/04 00:57:53;;;;;;;1.92;1.20;;;;;;;21.51;54.32;96786.03;5012740;28;20050;-80
2022/07/04 01:00:22;;;;;;;2.20;0.80;;;;;;;21.48;54.24;96796.38;4992713;28;20062;-79
2022/07/04 01:02:50;;;;;;;2.45;0.95;;;;;;;21.46;54.33;96798.47;4992555;28;20054;-79
2022/07/04 01:05:17;;;;;;;1.52;0.70;;;;;;;21.44;54.36;96797.91;4993029;28;20074;-79
2022/07/04 01:07:45;;;;;;;1.58;1.08;;;;;;;21.43;54.45;96804.25;4992526;28;20058;-80
2022/07/04 01:10:14;;;;;;;2.50;0.90;;;;;;;21.39;54.60;96802.06;4992483;28;20551;-80
2022/07/04 01:12:42;;;;;;;1.00;0.90;;;;;;;21.36;54.45;96802.56;4992890;28;20101;-79
2022/07/04 01:15:10;;;;;;;2.97;1.10;;;;;;;21.33;54.87;96807.56;4992646;28;20100;-79
2022/07/04 01:17:38;;;;;;;2.10;1.17;;;;;;;21.29;54.65;96833.75;4992675;28;20086;-79
2022/07/04 01:20:07;;;;;;;1.90;0.75;;;;;;;21.27;55.31;96851.78;4992263;28;20109;-79
2022/07/04 01:22:36;;;;;;;1.35;1.00;;;;;;;21.26;54.55;96826.28;4992813;28;20284;-79
2022/07/04 01:25:04;;;;;;;1.20;1.00;;;;;;;21.25;57.52;96822.03;4992942;28;20097;-79
2022/07/04 01:27:31;;;;;;;1.48;0.90;;;;;;;21.29;55.20;96833.75;4992853;28;20133;-79
2022/07/04 01:29:59;;;;;;;2.95;0.80;;;;;;;21.25;54.59;96834.50;4992570;28;20575;-79
2022/07/04 01:32:27;;;;;;;1.25;1.20;;;;;;;21.26;58.68;96839.56;4992361;28;20085;-80
2022/07/04 01:34:54;;;;;;;1.35;1.00;;;;;;;21.27;56.20;96830.53;4992440;28;20133;-79
2022/07/04 01:37:22;;;;;;;1.25;1.05;;;;;;;21.24;55.32;96831.03;4992920;28;20047;-80
2022/07/04 01:39:51;;;;;;;1.92;0.70;;;;;;;21.19;55.29;96838.94;4992689;28;20074;-79
2022/07/04 01:42:18;;;;;;;2.42;0.90;;;;;;;21.14;55.40;96836.19;4992202;28;20050;-79
2022/07/04 01:44:46;;;;;;;1.20;1.10;;;;;;;21.11;55.57;96831.38;4992431;28;20489;-79
2022/07/04 01:47:14;;;;;;;1.38;1.27;;;;;;;21.09;58.33;96828.97;4992359;28;20516;-79
2022/07/04 01:49:41;;;;;;;1.73;1.00;;;;;;;21.08;56.82;96837.97;4992604;28;20176;-79
2022/07/04 01:52:09;;;;;;;1.40;1.23;;;;;;;21.09;58.89;96834.28;4992249;28;20142;-79
2022/07/04 01:54:36;;;;;;;2.33;0.90;;;;;;;21.07;56.47;96836.38;4992746;28;20480;-79
2022/07/04 01:57:06;;;;;;;4.22;1.10;;;;;;;21.02;56.29;96827.53;4992413;28;20089;-79
2022/07/04 02:02:19;;;;;;;1.27;1.10;;;;;;;20.88;56.43;96829.69;4996054;28;20073;-79
2022/07/04 02:04:47;;;;;;;2.72;1.00;;;;;;;20.83;56.62;96840.25;4995689;28;20093;-79
2022/07/04 02:07:15;;;;;;;1.55;1.45;;;;;;;20.83;59.66;96841.03;4996085;28;20053;-80
2022/07/04 02:09:43;;;;;;;1.25;1.02;;;;;;;20.86;58.10;96853.81;4995773;28;20054;-79
2022/07/04 02:14:57;;;;;;;2.95;1.20;;;;;;;20.81;57.23;96853.72;4996717;28;20515;-80
2022/07/04 02:17:25;;;;;;;2.67;1.23;;;;;;;20.81;57.79;96864.34;4997966;28;20513;-79
2022/07/04 02:19:52;;;;;;;0.60;0.60;;;;;;;20.80;56.94;96857.44;4997454;28;20092;-80
2022/07/04 02:22:20;;;;;;;1.35;1.25;;;;;;;20.78;57.48;96855.03;4996820;28;20054;-80
2022/07/04 02:24:48;;;;;;;2.90;0.90;;;;;;;20.78;57.04;96862.19;4995920;28;20546;-80
2022/07/04 02:27:18;;;;;;;1.27;1.10;;;;;;;20.78;58.64;96864.81;4995959;28;20587;-79
2022/07/04 02:29:45;;;;;;;2.55;1.65;;;;;;;20.84;62.02;96869.16;4996121;28;20054;-79
2022/07/04 02:32:13;;;;;;;1.23;1.13;;;;;;;20.89;61.08;96877.19;4995279;28;20054;-79
2022/07/04 02:34:41;;;;;;;2.85;1.30;;;;;;;20.87;58.61;96881.94;4995449;28;20089;-79
2022/07/04 02:37:09;;;;;;;1.10;0.85;;;;;;;20.81;58.16;96874.94;4995285;28;20078;-79
2022/07/04 02:39:37;;;;;;;1.77;1.08;;;;;;;20.76;58.43;96888.13;4995578;28;20050;-79
2022/07/04 02:42:05;;;;;;;1.15;1.05;;;;;;;20.71;58.58;96890.69;4995160;28;20090;-79
2022/07/04 02:44:34;;;;;;;2.45;1.77;;;;;;;20.75;62.48;96903.22;4995315;28;20504;-79
2022/07/04 02:47:02;;;;;;;2.00;1.10;;;;;;;20.74;59.12;96898.94;4995163;28;20050;-79
2022/07/04 02:49:29;;;;;;;1.10;1.00;;;;;;;20.69;58.89;96893.56;4995637;28;20046;-80
2022/07/04 02:51:57;;;;;;;1.80;1.10;;;;;;;20.66;58.45;96898.53;4996707;28;20117;-80
2022/07/04 02:54:24;;;;;;;1.85;1.48;;;;;;;20.65;59.16;96894.28;4996004;28;20058;-80
2022/07/04 02:56:52;;;;;;;2.05;1.85;;;;;;;20.69;61.96;96898.09;4995184;28;20082;-79
2022/07/04 02:59:19;;;;;;;3.08;1.38;;;;;;;20.71;59.31;96906.59;4994927;28;20050;-79
2022/07/04 03:01:48;;;;;;;1.30;1.20;;;;;;;20.71;59.52;96906.59;4994370;28;20094;-80
2022/07/04 03:04:16;;;;;;;2.53;1.50;;;;;;;20.73;59.86;96904.50;4994768;28;20042;-80
2022/07/04 03:06:44;;;;;;;4.28;1.70;;;;;;;20.78;62.63;96908.03;4995163;28;20046;-79
2022/07/04 03:09:11;;;;;;;9.65;2.25;;;;;;;20.80;59.51;96910.47;4994954;28;20077;-79
2022/07/04 03:11:39;;;;;;;4.22;1.50;;;;;;;20.79;59.05;96919.44;4994104;28;20579;-79
2022/07/04 03:14:07;;;;;;;1.92;1.50;;;;;;;20.82;61.44;96923.50;4994600;28;20097;-79
2022/07/04 03:16:34;;;;;;;2.97;1.35;;;;;;;20.83;60.43;96928.53;4994730;28;20046;-79
2022/07/04 03:19:03;;;;;;;1.83;1.30;;;;;;;20.84;60.57;96927.50;4994463;28;20046;-79
2022/07/04 03:21:31;;;;;;;1.92;1.58;;;;;;;20.83;59.00;96920.56;4994286;28;20082;-80
2022/07/04 03:23:58;;;;;;;2.15;0.95;;;;;;;20.79;58.94;96922.09;4996220;28;20472;-80
2022/07/04 03:26:27;;;;;;;4.68;1.30;;;;;;;20.80;59.92;96936.19;4995070;28;20556;-80
2022/07/04 03:28:55;;;;;;;2.25;1.45;;;;;;;20.82;60.97;96944.69;4994750;28;20093;-79
2022/07/04 03:31:23;;;;;;;2.35;1.90;;;;;;;20.83;61.28;96941.78;4994262;28;20050;-79
2022/07/04 03:33:51;;;;;;;2.60;1.58;;;;;;;20.82;60.32;96944.69;4994684;28;20046;-79
2022/07/04 03:36:21;;;;;;;2.13;1.63;;;;;;;20.81;59.61;96943.88;4994734;28;20105;-80
2022/07/04 03:38:49;;;;;;;5.25;1.70;;;;;;;20.81;60.64;96941.22;4995216;28;20054;-80
2022/07/04 03:41:16;;;;;;;2.15;1.50;;;;;;;20.83;60.56;96956.91;4994064;28;20108;-80
2022/07/04 03:43:44;;;;;;;1.73;1.63;;;;;;;20.80;60.33;96942.28;4994932;28;20516;-79
2022/07/04 03:46:12;;;;;;;4.60;1.65;;;;;;;20.83;61.37;96947.09;4994517;28;20104;-79
2022/07/04 03:48:42;;;;;;;4.70;1.75;;;;;;;20.81;59.99;96943.88;4994794;28;20459;-79
2022/07/04 03:51:12;;;;;;;1.60;1.50;;;;;;;20.78;61.74;96949.66;4994250;28;20109;-79
2022/07/04 03:53:41;;;;;;;1.98;1.70;;;;;;;20.80;62.82;96944.94;4994446;28;20050;-79
2022/07/04 03:56:09;;;;;;;3.13;1.60;;;;;;;20.81;60.52;96962.44;4994825;28;20125;-80
2022/07/04 03:58:37;;;;;;;4.28;1.80;;;;;;;20.82;61.98;96966.72;4994491;28;20066;-79
2022/07/04 04:01:05;;;;;;;2.58;2.15;;;;;;;20.83;61.62;96956.91;4994297;28;20085;-79
2022/07/04 04:06:18;;;;;;;2.08;1.50;;;;;;;20.81;61.49;96948.38;4993928;28;20531;-80
2022/07/04 04:08:47;;;;;;;2.45;1.30;;;;;;;20.82;62.06;96956.09;4996077;28;20042;-78
2022/07/04 04:11:14;;;;;;;3.22;1.27;;;;;;;20.81;60.33;96958.97;4994262;28;20093;-80
2022/07/04 04:13:42;;;;;;;3.10;1.50;;;;;;;20.80;62.10;96960.03;4993137;28;20138;-79
2022/07/04 04:16:10;;;;;;;2.58;1.88;;;;;;;20.79;60.91;96956.56;4985912;28;20096;-80
2022/07/04 04:18:37;;;;;;;1.58;1.30;;;;;;;20.79;62.06;96948.59;4989267;28;20097;-80
2022/07/04 04:21:05;;;;;;;1.52;1.42;;;;;;;20.81;62.47;96951.81;4994113;28;20054;-79
2022/07/04 04:23:33;;;;;;;2.40;1.63;;;;;;;20.81;62.67;96951.03;4984327;28;20046;-79
2022/07/04 04:26:02;;;;;;;1.40;1.30;;;;;;;20.76;60.07;96951.75;4995033;28;20616;-80
2022/07/04 04:28:30;;;;;;;4.22;1.20;;;;;;;20.72;60.41;96947.97;4993661;28;20074;-80
2022/07/04 04:30:57;;;;;;;1.60;1.50;;;;;;;20.71;61.92;96960.41;4990240;28;20054;-79
2022/07/04 04:33:25;;;;;;;3.15;1.60;;;;;;;20.69;60.43;96946.59;4986139;28;20046;-79
2022/07/04 04:35:53;;;;;;;2.15;1.63;;;;;;;20.71;61.88;96952.47;4993579;28;20054;-81
2022/07/04 04:38:21;;;;;;;1.95;1.50;;;;;;;20.73;60.72;96952.22;4980324;28;20046;-80
2022/07/04 04:40:48;;;;;;;1.58;1.33;;;;;;;20.73;59.66;96960.19;4994104;28;20050;-79
2022/07/04 04:43:17;;;;;;;1.48;1.33;;;;;;;20.71;59.46;96975.53;4993271;28;20077;-80
2022/07/04 04:45:45;;;;;;;2.03;1.30;;;;;;;20.67;58.92;96964.56;4979603;28;20046;-79
2022/07/04 04:48:14;;;;;;;3.80;1.33;;;;;;;20.61;58.94;96962.88;4988412;28;20073;-79
2022/07/04 04:50:42;;;;;;;2.47;1.77;;;;;;;20.57;59.01;96967.84;4982050;28;20456;-78
2022/07/04 04:53:09;;;;;;;3.83;1.88;;;;;;;20.57;59.70;96975.81;4993457;28;20069;-80
2022/07/04 04:55:37;;;;;;;3.28;2.05;;;;;;;20.61;61.03;96977.97;4992808;28;20054;-79
2022/07/04 04:58:05;;;;;;;4.13;1.48;;;;;;;20.63;60.21;96973.25;4992969;28;20136;-80
2022/07/04 05:00:33;;;;;;;3.90;1.83;;;;;;;20.64;61.01;96985.44;4992387;28;20133;-80
2022/07/04 05:03:01;;;;;;;3.05;1.60;;;;;;;20.67;60.77;96990.28;4985490;28;20093;-80
2022/07/04 05:05:29;;;;;;;4.03;1.67;;;;;;;20.67;60.91;96990.28;4988889;28;20058;-79
2022/07/04 05:07:56;;;;;;;1.83;1.67;;;;;;;20.67;59.36;96991.09;4992643;28;20105;-80
2022/07/04 05:10:24;;;;;;;4.05;2.10;;;;;;;20.68;60.10;97000.63;4992126;28;20475;-80
2022/07/04 05:12:52;;;;;;;9.05;7.18;;;;;;;20.69;59.64;96998.81;4993106;28;20050;-79
2022/07/04 05:15:19;;;;;;;7.38;5.25;;;;;;;20.70;59.17;97003.06;4993067;28;20097;-80
2022/07/04 05:17:48;;;;;;;1.90;1.70;;;;;;;20.72;59.73;97017.69;4993137;28;20047;-80
2022/07/04 05:20:16;;;;;;;6.32;2.15;;;;;;;20.72;60.19;97014.22;4992198;28;20079;-80
2022/07/04 05:22:44;;;;;;;4.40;1.90;;;;;;;20.74;60.48;97009.50;4992719;28;20531;-80
2022/07/04 05:25:11;;;;;;;1.70;1.45;;;;;;;20.74;58.67;97006.84;4995577;28;20106;-80
2022/07/04 05:27:39;;;;;;;5.97;2.10;;;;;;;20.74;58.80;97006.84;5010039;28;20078;-81
2022/07/04 05:30:08;;;;;;;2.05;1.73;;;;;;;20.75;60.08;97003.97;5001256;28;20046;-81
2022/07/04 05:32:39;;;;;;;2.60;1.60;;;;;;;20.78;61.02;96998.19;5001923;28;20050;-80
2022/07/04 05:35:09;;;;;;;3.50;1.90;;;;;;;20.80;59.51;97000.59;4999357;28;20444;-80
2022/07/04 05:37:36;;;;;;;3.75;1.98;;;;;;;20.83;59.42;97000.13;4998655;28;20489;-80
2022/07/04 05:40:05;;;;;;;9.35;2.10;;;;;;;20.82;58.16;97003.81;5001771;28;20078;-80
2022/07/04 05:42:34;;;;;;;4.50;2.03;;;;;;;20.82;59.12;96997.72;5010575;28;20077;-81
2022/07/04 05:45:02;;;;;;;3.83;1.75;;;;;;;20.85;58.91;97003.34;4990276;28;20189;-80
2022/07/04 05:47:29;;;;;;;1.92;1.70;;;;;;;20.88;58.33;97010.00;4993158;28;20054;-80
2022/07/04 05:49:58;;;;;;;2.47;1.85;;;;;;;20.91;59.08;97010.34;4997677;28;20050;-80
2022/07/04 05:52:27;;;;;;;3.53;1.90;;;;;;;20.93;58.13;97018.06;4997102;28;20051;-81
2022/07/04 05:54:54;;;;;;;3.80;1.80;;;;;;;20.93;58.49;97016.22;4996807;28;20142;-81
2022/07/04 05:57:22;;;;;;;3.13;1.45;;;;;;;20.95;58.51;97019.44;4996862;28;20046;-80
2022/07/04 05:59:50;;;;;;;3.88;1.95;;;;;;;20.95;58.08;97019.44;4987189;28;20078;-80
2022/07/04 06:02:18;;;;;;;3.20;1.80;;;;;;;20.96;58.57;97017.59;4994459;22;20047;-78
2022/07/04 06:04:45;;;;;;;3.13;2.10;;;;;;;20.97;57.66;97027.97;4995698;28;20118;-78
2022/07/04 06:07:13;;;;;;;2.17;1.60;;;;;;;20.97;58.34;97033.28;4993965;28;20074;-78
2022/07/04 06:09:43;;;;;;;3.92;1.60;;;;;;;20.98;57.65;97028.75;4987413;28;20043;-77
2022/07/04 06:12:11;;;;;;;2.25;2.05;;;;;;;21.02;58.58;97034.41;4981671;28;20051;-75
2022/07/04 06:14:39;;;;;;;2.35;1.63;;;;;;;21.05;58.66;97039.22;4976213;28;20114;-73
2022/07/04 06:17:06;;;;;;;5.85;2.00;;;;;;;21.08;58.57;97028.97;4976038;28;20047;-74
2022/07/04 06:49:20;;;;;;;4.13;1.42;;;;;;;21.46;53.79;97039.97;4245893;23;20058;-78
2022/07/04 06:51:55;;;;;;;2.30;1.40;;;;;;;21.48;54.10;97032.56;4990193;28;20133;-78
2022/07/04 06:54:31;;;;;;;3.75;1.55;;;;;;;21.52;54.10;97028.41;5010628;28;20038;-79
2022/07/04 07:00:05;;;;;;;1.90;1.67;;;;;;;21.63;53.64;97021.41;5016006;28;20093;-79
2022/07/04 07:02:46;;;;;;;1.77;1.60;;;;;;;21.67;54.35;97020.66;5015960;28;20046;-79
2022/07/04 07:05:25;;;;;;;5.03;1.80;;;;;;;21.70;53.94;97020.19;5007394;28;20062;-78
2022/07/04 07:08:28;;;;;;;2.08;1.55;;;;;;;21.74;54.36;97023.97;5012362;28;20042;-78
2022/07/04 07:11:12;;;;;;;1.70;1.60;;;;;;;21.79;54.61;97021.38;4996086;28;20055;-79
2022/07/04 07:14:06;;;;;;;4.35;1.77;;;;;;;21.84;53.52;97019.84;5012701;28;20046;-79
2022/07/04 07:16:36;;;;;;;3.25;1.85;;;;;;;21.88;53.97;97015.66;5015543;28;20105;-79
2022/07/04 07:19:14;;;;;;;2.22;2.00;;;;;;;21.93;53.99;97018.38;5018096;28;20065;-79
2022/07/04 07:21:53;;;;;;;2.75;1.60;;;;;;;21.96;54.98;97021.34;5015564;28;20045;-77
2022/07/04 07:24:25;;;;;;;3.03;1.48;;;;;;;22.03;54.48;97021.19;5008036;28;20074;-78
2022/07/04 07:27:00;;;;;;;3.53;1.70;;;;;;;22.12;53.91;97019.72;5011578;28;20485;-78
2022/07/04 07:29:44;;;;;;;1.83;1.70;;;;;;;22.18;54.82;97016.06;5016739;28;20077;-78
2022/07/04 07:32:22;;;;;;;2.53;1.70;;;;;;;22.24;53.63;97018.81;5018811;28;20045;-79
2022/07/04 07:35:09;;;;;;;3.15;1.73;;;;;;;22.29;53.80;97016.25;5013064;28;20058;-78
2022/07/04 07:37:45;;;;;;;1.70;1.30;;;;;;;22.35;54.03;97017.91;5015918;28;20054;-79
2022/07/04 07:43:25;;;;;;;3.35;1.42;;;;;;;22.48;52.38;97003.44;5012308;28;20045;-78
2022/07/04 07:46:08;;;;;;;3.47;1.40;;;;;;;22.52;51.99;96999.22;5017472;28;20054;-78
2022/07/04 07:48:53;;;;;;;1.67;1.50;;;;;;;22.56;52.74;96984.41;5014208;28;20054;-78
2022/07/04 07:51:30;;;;;;;2.03;1.23;;;;;;;22.60;52.31;96986.31;5016660;28;20049;-80
2022/07/04 08:18:36;;;;;;;2.22;1.73;;;;;;;23.23;50.74;96977.91;5345306;22;20057;-78
2022/07/04 08:21:04;;;;;;;3.05;1.85;;;;;;;23.23;50.24;96975.25;5019085;28;20046;-79
2022/07/04 08:23:39;;;;;;;1.80;1.55;;;;;;;23.20;50.16;96973.09;4996304;28;20102;-78
2022/07/04 08:26:18;;;;;;;2.05;1.35;;;;;;;23.19;51.19;96971.47;4994628;28;20051;-78
2022/07/04 08:28:47;;;;;;;2.97;1.48;;;;;;;23.18;50.57;96968.03;4996102;28;20051;-79
2022/07/04 08:31:16;;;;;;;1.60;1.50;;;;;;;23.20;50.66;96967.78;5008024;28;20050;-78
2022/07/04 08:34:04;;;;;;;3.40;1.50;;;;;;;23.22;51.20;96963.81;5002472;28;20081;-78
2022/07/04 08:36:32;;;;;;;2.63;1.52;;;;;;;23.28;51.31;96969.94;5000179;28;20058;-78
2022/07/04 08:39:00;;;;;;;2.60;1.80;;;;;;;23.31;50.86;96964.13;5008702;28;20058;-78
2022/07/04 08:41:34;;;;;;;3.15;1.50;;;;;;;23.35;51.10;96972.41;4992049;28;20046;-78
2022/07/04 08:44:03;;;;;;;2.13;1.70;;;;;;;23.39;50.52;96968.97;4989247;28;20055;-78
2022/07/04 08:46:35;;;;;;;4.32;1.60;;;;;;;23.41;50.56;96971.38;4992340;28;20046;-78
2022/07/04 08:49:07;;;;;;;1.67;1.58;;;;;;;23.42;50.86;96978.34;4989087;28;20082;-78
2022/07/04 08:51:44;;;;;;;2.35;1.75;;;;;;;23.43;51.31;96975.41;4998117;28;20077;-78
2022/07/04 08:59:45;;;;;;;2.17;1.45;;;;;;;23.41;50.30;96974.84;4989311;28;20055;-78
2022/07/04 09:02:18;;;;;;;2.42;1.88;;;;;;;23.43;50.68;96978.06;4988390;28;20544;-78
2022/07/04 09:04:47;;;;;;;2.50;1.73;;;;;;;23.46;50.97;96987.38;5000107;28;20051;-78
2022/07/04 09:07:17;;;;;;;2.60;1.55;;;;;;;23.51;50.38;96986.66;5005121;28;20062;-79
2022/07/04 09:09:46;;;;;;;2.50;1.38;;;;;;;23.54;50.81;96988.78;5000143;28;20046;-78
2022/07/04 09:12:19;;;;;;;1.27;1.20;;;;;;;23.59;50.79;96996.81;5006039;28;20042;-78
2022/07/04 09:14:47;;;;;;;3.90;1.70;;;;;;;23.62;50.55;96996.31;5002525;28;20045;-78
2022/07/04 09:17:16;;;;;;;1.88;1.60;;;;;;;23.65;50.66;96996.59;5004666;28;20038;-78
2022/07/04 09:19:44;;;;;;;1.55;1.45;;;;;;;23.69;50.75;96988.91;4999273;28;20109;-78
2022/07/04 09:22:14;;;;;;;2.30;1.67;;;;;;;23.78;50.51;96994.59;5002129;28;20055;-78
2022/07/04 09:24:45;;;;;;;6.28;1.67;;;;;;;23.83;50.64;96992.75;5009563;28;20030;-78
2022/07/04 09:27:37;;;;;;;5.55;1.83;;;;;;;23.88;50.49;96999.97;4994615;28;20054;-79
2022/07/04 09:30:06;;;;;;;2.80;1.25;;;;;;;24.00;50.80;97008.56;4980457;28;20051;-78
2022/07/04 09:32:37;;;;;;;4.07;1.80;;;;;;;24.14;50.35;97008.94;4980686;28;20051;-79
2022/07/04 09:35:07;;;;;;;1.50;1.40;;;;;;;24.27;49.89;97018.31;4983185;28;20051;-78
2022/07/04 09:37:41;;;;;;;2.03;1.35;;;;;;;24.38;49.33;97022.63;4986511;28;20050;-78
2022/07/04 09:40:11;;;;;;;5.40;1.70;;;;;;;24.49;48.39;97023.50;4988705;28;20031;-79
2022/07/04 09:42:41;;;;;;;3.55;1.70;;;;;;;24.57;48.30;97025.66;4981275;28;20047;-79
2022/07/04 09:45:11;;;;;;;4.45;1.77;;;;;;;24.65;47.75;97017.16;4987703;28;20059;-78
2022/07/04 09:47:42;;;;;;;1.70;1.35;;;;;;;24.77;46.59;97019.59;4995646;28;20054;-78
2022/07/04 09:50:15;;;;;;;1.75;1.55;;;;;;;24.86;46.40;97019.88;4978399;28;20047;-78
2022/07/04 09:52:51;;;;;;;1.88;1.40;;;;;;;24.89;46.24;97019.38;4999597;28;20050;-78
2022/07/04 09:55:26;;;;;;;1.42;1.33;;;;;;;24.93;44.51;97017.78;4981465;28;20109;-78
2022/07/04 09:57:55;;;;;;;1.85;1.27;;;;;;;25.03;44.75;97027.66;4977428;28;20516;-78
2022/07/04 10:00:30;;;;;;;3.33;1.50;;;;;;;25.11;44.10;97027.16;4988583;28;20047;-78
2022/07/04 10:06:40;;;;;;;3.00;1.58;;;;;;;25.25;45.98;97020.28;5003338;28;20137;-78
2022/07/04 10:09:13;;;;;;;1.80;1.35;;;;;;;25.30;45.32;97022.13;4998567;28;20049;-79
2022/07/04 10:11:42;;;;;;;2.35;1.30;;;;;;;25.29;44.58;97028.53;4991660;28;20043;-78
2022/07/04 10:14:12;;;;;;;3.15;1.15;;;;;;;25.22;44.83;97028.78;4979351;28;20057;-78
2022/07/04 10:16:41;;;;;;;2.47;1.42;;;;;;;25.16;45.09;97034.34;4993006;28;20065;-78
2022/07/04 10:19:12;;;;;;;1.55;1.30;;;;;;;25.11;45.53;97037.03;4997606;28;20060;-79
2022/07/04 10:21:40;;;;;;;1.50;1.20;;;;;;;25.07;45.73;97037.53;4996262;28;20039;-78
2022/07/04 10:24:09;;;;;;;2.15;1.90;;;;;;;25.09;46.00;97051.44;4999146;28;20088;-78
2022/07/04 10:26:44;;;;;;;2.00;1.40;;;;;;;25.12;44.74;97038.63;4995156;28;20592;-78
2022/07/04 10:35:49;;;;;;;4.50;1.85;;;;;;;25.21;45.39;97034.38;5102886;23;20068;-80
2022/07/04 10:44:37;;;;;;;3.13;1.45;;;;;;;25.47;45.82;97021.84;5046460;22;20037;-78
2022/07/04 11:03:44;;;;;;;;;;;;;;;25.63;45.84;97014.66;5369395;22;20049;-81
2022/07/04 11:24:25;;;;;;;2.00;1.10;;;;;;;25.73;43.39;97017.31;5757494;22;20062;-80
2022/07/04 11:31:09;;;;;;;3.35;2.65;;;;;;;25.90;44.44;97007.16;5020733;28;20061;-79
2022/07/04 15:41:17;;;;;;;1.85;0.77;;;;;;;26.86;35.34;96784.16;6091669;23;20843;31
2022/07/04 16:27:02;;;;;;;1.23;0.90;;;;;;;26.81;36.51;96768.94;5811565;23;20075;-80
2022/07/04 16:35:46;;;;;;;1.85;1.00;;;;;;;26.85;37.94;96753.09;4897297;29;20056;-82
2022/07/04 21:52:00;;;;;;;1.45;1.00;;;;;;;23.08;44.62;96932.53;4961732;29;20070;-79
2022/07/04 22:03:40;;;;;;;0.82;0.82;;;;;;;22.94;45.00;96938.25;5071736;23;20039;-80
2022/07/04 22:07:00;;;;;;;1.05;0.80;;;;;;;22.89;45.48;96942.72;4961424;29;20055;-80
2022/07/04 22:10:05;;;;;;;1.58;1.00;;;;;;;22.84;45.39;96944.25;4961854;29;20100;-80
2022/07/04 22:23:49;;;;;;;1.88;1.00;;;;;;;22.60;47.08;96943.75;5036183;23;20032;-79
2022/07/04 22:26:32;;;;;;;1.85;0.82;;;;;;;22.57;47.43;96949.59;4964711;29;20028;-80
2022/07/04 22:34:55;;;;;;;1.87;1.27;;;;;;;22.32;47.28;96952.75;5347988;23;20098;-81
2022/07/04 22:43:17;;;;;;;3.03;1.40;;;;;;;22.04;46.73;96961.72;4964583;29;20032;-80
